Portada
METAR-TAF:

METAR-TAF

Aeroports :

Indianapolis, Indiana, Estats Units d'Amèrica

latitud: 39-50-37N, longitud: 085-53-49W, altitud: 263 m

Observació

L'informe es va fer fa 19 minuts, a les 01:15 UTC
Vent 10 kt del Oest
Temperatura 17°C
Humitat 59%
Pressió 1014 hPa
Visibilitat: 16.1 km
Cel clar

METAR: KMQJ 180115Z AUTO 27010KT 10SM CLR 17/09 A2993 RMK AO2 T01680095

Hora: 19:34 (01:34 UTC)


TAF: manca

Observacions i pronòstics meteorològics de més de 4000 aeroports (METAR i TAF).

Les estacions disponibles són els punts grocs i vermells al mapa.

Posi el ratolí al punt desitjat per veure el nom de l'estació.

Feu clic per veure les observacions i els pronòstics meteorològics.

Per canviar el mapa: feu clic els botons verds amb una creu de color negre per apropar; al botó verd amb un guió per allunyar la imatge; o en les fletxes verdes per a mapes adjacents.


METAR-TAF: